Time;durP1;ratioP1;P1;durP2;ratioP2;P2;SDS_P1;SDS_P2;PMS_P1;PMS_P2;Temp;Humidity;BMP_temperature;BMP_pressure;BME280_temperature;BME280_humidity;BME280_pressure;Samples;Min_cycle;Max_cycle;Signal;HPM_P1;HPM_P2
2022/04/06 00:01:43;;;;;;;65.90;24.25;;;7.50;99.90;;;;;;5028677;28;20045;-50
2022/04/06 00:04:09;;;;;;;66.90;24.27;;;7.70;99.90;;;;;;5028747;28;20811;-50
2022/04/06 00:06:35;;;;;;;61.53;21.92;;;7.60;99.90;;;;;;5028744;28;20060;-51
2022/04/06 00:09:01;;;;;;;66.25;22.40;;;7.40;99.90;;;;;;5028387;28;20075;-51
2022/04/06 00:11:27;;;;;;;57.05;21.85;;;7.40;99.90;;;;;;5028534;28;20060;-47
2022/04/06 00:13:53;;;;;;;64.18;22.77;;;7.60;99.90;;;;;;5027834;28;20053;-50
2022/04/06 00:16:19;;;;;;;70.50;23.27;;;7.70;99.90;;;;;;5028536;28;20141;-51
2022/04/06 00:18:45;;;;;;;59.80;21.90;;;7.60;99.90;;;;;;5028307;28;20041;-48
2022/04/06 00:21:12;;;;;;;55.72;21.75;;;8.00;99.90;;;;;;5028031;28;20103;-48
2022/04/06 00:23:37;;;;;;;70.57;22.27;;;7.60;99.90;;;;;;5028065;28;20468;-50
2022/04/06 00:26:03;;;;;;;70.35;22.52;;;8.60;99.90;;;;;;5028122;28;20073;-48
2022/04/06 00:28:29;;;;;;;56.00;19.75;;;7.50;99.90;;;;;;5028248;28;20068;-48
2022/04/06 00:30:55;;;;;;;56.33;19.42;;;7.40;99.90;;;;;;5028329;28;20037;-51
2022/04/06 00:33:21;;;;;;;61.70;21.38;;;7.60;99.90;;;;;;5027815;28;20102;-51
2022/04/06 00:35:47;;;;;;;72.63;20.20;;;7.70;99.90;;;;;;5026938;28;20073;-50
2022/04/06 00:38:14;;;;;;;60.15;20.60;;;7.50;99.90;;;;;;5027625;28;20054;-51
2022/04/06 00:40:40;;;;;;;47.80;19.30;;;7.60;99.90;;;;;;5027656;28;20064;-49
2022/04/06 00:43:13;;;;;;;51.25;17.88;;;7.70;99.90;;;;;;5028110;28;20437;-49
2022/04/06 00:45:41;;;;;;;48.88;18.65;;;7.60;99.90;;;;;;5027886;28;20539;-49
2022/04/06 00:48:07;;;;;;;56.70;18.33;;;7.70;99.90;;;;;;5027469;28;20052;-49
2022/04/06 00:50:34;;;;;;;56.53;21.00;;;7.70;99.90;;;;;;5028142;28;20698;-50
2022/04/06 00:53:00;;;;;;;61.45;19.63;;;7.90;99.90;;;;;;5027855;28;20046;-51
2022/04/06 00:55:34;;;;;;;52.97;18.55;;;7.70;99.90;;;;;;5028297;28;20391;-50
2022/04/06 00:58:00;;;;;;;57.40;19.20;;;7.40;99.90;;;;;;5027979;28;20041;-52
2022/04/06 01:00:26;;;;;;;48.22;19.92;;;7.80;99.90;;;;;;5028282;28;20045;-49
2022/04/06 01:02:52;;;;;;;52.28;20.35;;;7.70;99.90;;;;;;5030845;28;20124;-50
2022/04/06 01:05:18;;;;;;;52.00;21.30;;;8.00;99.90;;;;;;5031778;28;20095;-49
2022/04/06 01:07:49;;;;;;;51.22;20.60;;;7.70;99.90;;;;;;5031690;28;20048;-50
2022/04/06 01:10:15;;;;;;;59.08;22.15;;;7.70;99.90;;;;;;5031664;28;20052;-48
2022/04/06 01:12:47;;;;;;;52.10;23.98;;;7.50;99.90;;;;;;5031860;28;20128;-50
2022/04/06 01:15:13;;;;;;;54.05;23.88;;;7.80;99.90;;;;;;5031314;28;20579;-51
2022/04/06 01:17:39;;;;;;;48.63;23.85;;;8.40;99.90;;;;;;5031907;28;20133;-51
2022/04/06 01:20:07;;;;;;;61.65;22.58;;;7.70;99.90;;;;;;5031194;28;20081;-48
2022/04/06 01:22:33;;;;;;;58.42;25.65;;;7.70;99.90;;;;;;5031933;28;20772;-49
2022/04/06 01:24:58;;;;;;;70.82;26.58;;;7.50;99.90;;;;;;5031212;28;20046;-51
2022/04/06 01:27:24;;;;;;;51.67;23.42;;;7.50;99.90;;;;;;5031704;28;20125;-48
2022/04/06 01:29:52;;;;;;;50.70;23.33;;;8.50;99.90;;;;;;5031926;28;20048;-50
2022/04/06 01:32:22;;;;;;;42.88;22.67;;;7.70;99.90;;;;;;5031412;28;20111;-49
2022/04/06 01:34:49;;;;;;;58.97;23.25;;;7.80;99.90;;;;;;5032086;28;20049;-48
2022/04/06 01:37:17;;;;;;;48.40;21.30;;;7.70;99.90;;;;;;5031543;28;20033;-51
2022/04/06 01:39:45;;;;;;;52.42;22.08;;;7.70;99.90;;;;;;5030663;28;20049;-52
2022/04/06 01:42:15;;;;;;;38.40;20.30;;;8.60;99.90;;;;;;5031104;28;20391;-48
2022/04/06 01:44:41;;;;;;;39.58;19.23;;;7.80;99.90;;;;;;5031111;28;20126;-50
2022/04/06 01:47:08;;;;;;;51.67;20.20;;;7.50;99.90;;;;;;5030982;28;20076;-49
2022/04/06 01:52:19;;;;;;;46.17;17.95;;;7.50;99.90;;;;;;5031299;28;20146;-51
2022/04/06 01:54:53;;;;;;;36.28;17.40;;;7.70;99.90;;;;;;5029530;28;20498;-50
2022/04/06 01:57:20;;;;;;;43.00;18.83;;;7.80;99.90;;;;;;5030922;28;20068;-49
2022/04/06 01:59:46;;;;;;;46.35;17.73;;;8.80;99.90;;;;;;5031001;28;20051;-51
2022/04/06 02:02:14;;;;;;;49.65;17.83;;;7.50;99.90;;;;;;5030801;28;20053;-48
2022/04/06 02:04:41;;;;;;;33.92;16.52;;;7.50;99.90;;;;;;5030697;28;20033;-50
2022/04/06 02:07:11;;;;;;;39.05;15.98;;;7.60;99.90;;;;;;5031100;28;20052;-50
2022/04/06 02:09:39;;;;;;;31.67;15.75;;;7.70;99.90;;;;;;5031062;28;20443;-48
2022/04/06 02:12:06;;;;;;;37.08;15.93;;;8.50;99.90;;;;;;5030420;28;20071;-49
2022/04/06 02:14:32;;;;;;;48.70;14.93;;;7.70;99.90;;;;;;5030463;28;20098;-52
2022/04/06 02:16:58;;;;;;;34.45;13.55;;;7.40;99.90;;;;;;5030872;28;20121;-51
2022/04/06 02:19:24;;;;;;;33.88;14.43;;;7.50;99.90;;;;;;5030398;28;20042;-51
2022/04/06 02:21:50;;;;;;;42.45;15.35;;;7.50;99.90;;;;;;5030412;28;20037;-48
2022/04/06 02:24:17;;;;;;;32.40;14.07;;;7.70;99.90;;;;;;5028800;28;20391;-48
2022/04/06 02:26:43;;;;;;;36.65;14.23;;;7.40;99.90;;;;;;5030406;28;20049;-49
2022/04/06 02:29:08;;;;;;;24.98;12.27;;;7.50;99.90;;;;;;5030046;28;20045;-48
2022/04/06 02:31:34;;;;;;;29.33;12.52;;;7.60;99.90;;;;;;5030268;28;20068;-50
2022/04/06 02:34:00;;;;;;;25.58;10.68;;;8.00;99.90;;;;;;5030141;28;20112;-52
2022/04/06 02:36:25;;;;;;;34.08;11.98;;;7.40;99.90;;;;;;5030040;28;20364;-48
2022/04/06 02:38:51;;;;;;;29.75;12.20;;;8.70;99.90;;;;;;5029762;28;20344;-55
2022/04/06 02:41:18;;;;;;;24.83;10.63;;;8.20;99.90;;;;;;5029682;28;20049;-49
2022/04/06 02:43:44;;;;;;;31.10;11.00;;;7.50;99.90;;;;;;5030461;28;20053;-48
2022/04/06 02:46:10;;;;;;;26.92;10.70;;;8.00;99.90;;;;;;5029770;28;20038;-51
2022/04/06 02:48:36;;;;;;;23.45;9.90;;;7.60;99.90;;;;;;5030242;28;20049;-49
2022/04/06 02:51:01;;;;;;;21.33;9.80;;;7.60;99.90;;;;;;5030347;28;20049;-52
2022/04/06 02:53:27;;;;;;;27.85;8.52;;;7.40;99.90;;;;;;5029998;28;20547;-48
2022/04/06 02:55:53;;;;;;;26.73;10.23;;;7.40;99.90;;;;;;5030043;28;20086;-50
2022/04/06 02:58:19;;;;;;;21.23;10.48;;;7.40;99.90;;;;;;5030024;28;20041;-51
2022/04/06 03:00:44;;;;;;;26.42;9.38;;;7.50;99.90;;;;;;5029785;28;20098;-50
2022/04/06 03:03:10;;;;;;;31.13;10.15;;;7.50;99.90;;;;;;5029759;28;20467;-49
2022/04/06 03:05:36;;;;;;;24.13;10.95;;;7.40;99.90;;;;;;5029764;28;20499;-51
2022/04/06 03:08:02;;;;;;;31.30;8.88;;;7.30;99.90;;;;;;5029861;28;20491;-48
2022/04/06 03:10:28;;;;;;;27.08;8.63;;;7.20;99.90;;;;;;5029510;28;20264;-51
2022/04/06 03:12:54;;;;;;;23.52;7.82;;;7.50;99.90;;;;;;5029823;28;20163;-48
2022/04/06 03:15:20;;;;;;;19.92;8.18;;;7.40;99.90;;;;;;5029437;28;20085;-50
2022/04/06 03:17:46;;;;;;;22.05;7.85;;;7.50;99.90;;;;;;5029658;28;20045;-50
2022/04/06 03:20:15;;;;;;;29.35;11.50;;;7.90;99.90;;;;;;5029392;28;20037;-50
2022/04/06 03:22:41;;;;;;;24.60;9.25;;;7.20;99.90;;;;;;5029751;28;20041;-48
2022/04/06 03:25:08;;;;;;;30.83;11.15;;;7.20;99.90;;;;;;5028763;28;20041;-48
2022/04/06 03:27:34;;;;;;;28.73;10.10;;;7.50;99.90;;;;;;5027950;28;20045;-49
2022/04/06 03:30:02;;;;;;;29.08;10.38;;;7.60;99.90;;;;;;5029535;28;20045;-49
2022/04/06 03:32:27;;;;;;;30.20;9.80;;;7.40;99.90;;;;;;5029352;28;20053;-50
2022/04/06 03:34:53;;;;;;;26.90;9.68;;;7.50;99.90;;;;;;5028900;28;20045;-48
2022/04/06 03:37:19;;;;;;;30.90;11.05;;;7.70;99.90;;;;;;5029204;28;20033;-49
2022/04/06 03:39:44;;;;;;;32.85;10.98;;;7.50;99.90;;;;;;5028317;28;20057;-49
2022/04/06 03:42:10;;;;;;;29.58;10.68;;;7.50;99.90;;;;;;5029394;28;20050;-49
2022/04/06 03:44:36;;;;;;;29.67;11.00;;;7.30;99.90;;;;;;5028783;28;20047;-51
2022/04/06 03:47:01;;;;;;;31.30;11.52;;;7.50;99.90;;;;;;5028552;28;20644;-48
2022/04/06 03:49:27;;;;;;;33.05;11.00;;;7.60;99.90;;;;;;5028732;28;20037;-51
2022/04/06 03:51:53;;;;;;;31.40;12.93;;;7.40;99.90;;;;;;5028827;28;20084;-52
2022/04/06 03:54:19;;;;;;;32.45;12.25;;;7.60;99.90;;;;;;5028560;28;20162;-50
2022/04/06 03:56:44;;;;;;;46.55;13.45;;;7.90;99.90;;;;;;5028805;28;20052;-49
2022/04/06 03:59:10;;;;;;;35.63;12.65;;;7.60;99.90;;;;;;5028854;28;20105;-50
2022/04/06 04:01:36;;;;;;;38.67;13.55;;;7.40;99.90;;;;;;5028444;28;20041;-49
2022/04/06 04:04:04;;;;;;;41.83;13.18;;;7.60;99.90;;;;;;5028988;28;20048;-51
2022/04/06 04:06:30;;;;;;;38.42;12.43;;;7.70;99.90;;;;;;5028101;28;20062;-47
2022/04/06 04:08:56;;;;;;;38.67;14.30;;;8.40;99.90;;;;;;5028874;28;20164;-51
2022/04/06 04:11:21;;;;;;;39.15;13.65;;;7.70;99.90;;;;;;5028280;28;20802;-49
2022/04/06 04:13:47;;;;;;;44.97;14.80;;;7.70;99.90;;;;;;5028326;28;20053;-51
2022/04/06 04:16:13;;;;;;;42.22;15.80;;;8.50;99.90;;;;;;5028528;28;20045;-52
2022/04/06 04:18:39;;;;;;;43.50;15.77;;;7.60;99.90;;;;;;5028060;28;20120;-48
2022/04/06 04:23:49;;;;;;;36.75;15.93;;;7.70;99.90;;;;;;5028302;28;20049;-48
2022/04/06 04:26:15;;;;;;;40.70;15.63;;;7.80;99.90;;;;;;5028204;28;20041;-48
2022/04/06 04:28:40;;;;;;;37.58;15.52;;;7.70;99.90;;;;;;5027958;28;20045;-49
2022/04/06 04:31:06;;;;;;;37.20;15.00;;;8.30;99.90;;;;;;5028263;28;20052;-50
2022/04/06 04:33:32;;;;;;;38.17;14.80;;;7.70;99.90;;;;;;5028364;28;20049;-49
2022/04/06 04:35:58;;;;;;;42.50;16.50;;;7.70;99.90;;;;;;5027864;28;20103;-52
2022/04/06 04:38:23;;;;;;;34.60;14.68;;;8.00;99.90;;;;;;5027497;28;20095;-50
2022/04/06 04:40:50;;;;;;;34.50;14.13;;;7.50;99.90;;;;;;5027799;28;20064;-51
2022/04/06 04:43:16;;;;;;;43.53;15.23;;;7.60;99.90;;;;;;5028194;28;20060;-49
2022/04/06 04:45:42;;;;;;;31.10;13.98;;;7.70;99.90;;;;;;5027877;28;20120;-48
2022/04/06 04:48:08;;;;;;;38.97;15.63;;;8.00;99.90;;;;;;5027679;28;20045;-49
2022/04/06 04:50:33;;;;;;;31.77;12.88;;;7.80;99.90;;;;;;5027621;28;20084;-49
2022/04/06 04:52:59;;;;;;;32.22;13.60;;;8.50;99.90;;;;;;5028102;28;20046;-49
2022/04/06 04:55:25;;;;;;;35.05;13.05;;;7.40;99.90;;;;;;5028093;28;20037;-50
2022/04/06 04:57:50;;;;;;;34.90;14.40;;;7.70;99.90;;;;;;5026832;28;20140;-51
2022/04/06 05:00:16;;;;;;;34.78;15.02;;;7.60;99.90;;;;;;5028152;28;20514;-50
2022/04/06 05:02:42;;;;;;;34.72;12.32;;;7.60;99.90;;;;;;5027790;28;20395;-48
2022/04/06 05:05:10;;;;;;;36.53;12.93;;;7.70;99.90;;;;;;5027790;28;20048;-48
2022/04/06 05:07:38;;;;;;;37.53;12.13;;;7.60;99.90;;;;;;5027896;28;20403;-51
2022/04/06 05:10:09;;;;;;;30.15;13.65;;;7.50;99.90;;;;;;5028121;28;20622;-50
2022/04/06 05:12:35;;;;;;;37.78;14.18;;;7.50;99.90;;;;;;5027980;28;20099;-49
2022/04/06 05:15:01;;;;;;;30.60;11.45;;;7.50;99.90;;;;;;5027797;28;20526;-51
2022/04/06 05:17:28;;;;;;;26.50;10.10;;;7.30;99.90;;;;;;5028004;28;20041;-48
2022/04/06 05:19:54;;;;;;;32.50;12.00;;;7.30;99.90;;;;;;5026611;28;20041;-53
2022/04/06 05:22:21;;;;;;;27.27;9.93;;;7.90;99.90;;;;;;5028092;28;20048;-48
2022/04/06 05:24:47;;;;;;;42.03;9.93;;;7.40;99.90;;;;;;5027481;28;20071;-52
2022/04/06 05:27:13;;;;;;;28.88;9.80;;;7.40;99.90;;;;;;5027961;28;20037;-49
2022/04/06 05:29:39;;;;;;;37.13;9.43;;;7.20;99.90;;;;;;5027610;28;20049;-52
2022/04/06 05:32:05;;;;;;;24.70;8.55;;;7.30;99.90;;;;;;5028273;28;20172;-50
2022/04/06 05:34:30;;;;;;;30.95;9.65;;;7.40;99.90;;;;;;5027809;28;20509;-48
2022/04/06 05:36:56;;;;;;;28.88;10.32;;;8.20;99.90;;;;;;5027861;28;20053;-50
2022/04/06 05:39:22;;;;;;;17.35;8.20;;;7.40;99.90;;;;;;5027419;28;20399;-48
2022/04/06 05:41:49;;;;;;;24.08;8.10;;;7.80;99.90;;;;;;5027709;28;20057;-49
2022/04/06 05:44:16;;;;;;;28.20;7.82;;;8.50;99.90;;;;;;5028372;28;20454;-49
2022/04/06 05:46:42;;;;;;;26.63;6.50;;;8.00;99.90;;;;;;5027609;28;20037;-49
2022/04/06 05:49:08;;;;;;;22.35;6.53;;;7.20;99.90;;;;;;5030546;28;20045;-52
2022/04/06 05:51:34;;;;;;;18.80;6.40;;;7.30;99.90;;;;;;5030937;28;20835;-48
2022/04/06 05:54:02;;;;;;;20.80;6.18;;;7.40;99.90;;;;;;5031111;28;20096;-51
2022/04/06 05:56:28;;;;;;;26.25;7.45;;;7.40;99.90;;;;;;5030887;28;20045;-49
2022/04/06 05:58:54;;;;;;;21.02;7.75;;;7.40;99.90;;;;;;5031278;28;20041;-53
2022/04/06 06:01:20;;;;;;;22.58;6.47;;;7.40;99.90;;;;;;5031185;28;20053;-49
2022/04/06 06:03:46;;;;;;;24.52;6.82;;;7.50;99.90;;;;;;5031059;28;20591;-50
2022/04/06 06:06:11;;;;;;;19.85;7.40;;;7.40;99.90;;;;;;5031474;28;20044;-52
2022/04/06 06:08:37;;;;;;;17.77;5.95;;;7.80;99.90;;;;;;5030919;28;20040;-49
2022/04/06 06:11:04;;;;;;;20.58;6.90;;;7.30;99.90;;;;;;5030989;28;20479;-50
2022/04/06 06:13:31;;;;;;;28.40;7.05;;;7.50;99.90;;;;;;5030703;28;20103;-49
2022/04/06 06:15:57;;;;;;;20.38;8.13;;;7.50;99.90;;;;;;5030378;28;20128;-49
2022/04/06 06:18:24;;;;;;;20.15;6.30;;;7.30;99.90;;;;;;5028976;28;20176;-51
2022/04/06 06:20:50;;;;;;;23.73;6.38;;;5.70;99.90;;;;;;5030094;28;20046;-49
2022/04/06 06:23:16;;;;;;;20.17;5.72;;;7.90;99.90;;;;;;5030351;28;20076;-51
2022/04/06 06:25:41;;;;;;;15.57;6.05;;;7.40;99.90;;;;;;5030393;28;20100;-51
2022/04/06 06:28:08;;;;;;;18.20;5.50;;;7.50;99.90;;;;;;5030401;28;20037;-49
2022/04/06 06:30:34;;;;;;;22.92;5.80;;;7.50;99.90;;;;;;5028916;28;20057;-49
2022/04/06 06:33:00;;;;;;;19.52;6.53;;;7.40;99.90;;;;;;5030281;28;20041;-49
2022/04/06 06:35:26;;;;;;;24.05;5.78;;;7.30;99.90;;;;;;5030316;28;20037;-52
2022/04/06 06:37:54;;;;;;;21.30;6.10;;;7.50;99.90;;;;;;5030008;28;20372;-49
2022/04/06 06:40:22;;;;;;;17.00;5.57;;;7.90;99.90;;;;;;5029767;28;20080;-48
2022/04/06 06:42:48;;;;;;;12.70;4.82;;;7.50;99.90;;;;;;5030052;28;20620;-50
2022/04/06 06:45:14;;;;;;;23.40;5.82;;;7.50;99.90;;;;;;5030222;28;20057;-52
2022/04/06 06:47:40;;;;;;;15.73;4.95;;;7.50;99.90;;;;;;5029916;28;20472;-49
2022/04/06 06:50:07;;;;;;;21.23;5.35;;;7.50;99.90;;;;;;5030256;28;20037;-50
2022/04/06 06:52:34;;;;;;;20.10;5.28;;;7.60;99.90;;;;;;5030176;28;20038;-52
2022/04/06 06:55:05;;;;;;;25.05;5.60;;;7.50;99.90;;;;;;5029903;28;20063;-50
2022/04/06 06:57:31;;;;;;;17.05;4.90;;;7.60;99.90;;;;;;5030275;28;20098;-51
2022/04/06 06:59:57;;;;;;;15.38;5.32;;;7.30;99.90;;;;;;5029392;28;20041;-49
2022/04/06 07:02:23;;;;;;;13.55;5.70;;;7.90;99.90;;;;;;5029808;28;20522;-51
2022/04/06 07:04:49;;;;;;;12.20;4.88;;;7.60;99.90;;;;;;5029802;28;20449;-50
2022/04/06 07:07:15;;;;;;;12.02;4.45;;;7.90;99.90;;;;;;5029985;28;20116;-52
2022/04/06 07:09:41;;;;;;;11.68;4.43;;;7.50;99.90;;;;;;5029869;28;20088;-51
2022/04/06 07:12:06;;;;;;;18.83;4.85;;;7.60;99.90;;;;;;5029343;28;20136;-50
2022/04/06 07:14:32;;;;;;;11.98;3.97;;;7.70;99.90;;;;;;5029804;28;20463;-50
2022/04/06 07:16:59;;;;;;;11.55;3.55;;;7.60;99.90;;;;;;5029366;28;20143;-52
2022/04/06 07:19:24;;;;;;;13.75;5.43;;;7.60;99.90;;;;;;5029101;28;20626;-50
2022/04/06 07:21:50;;;;;;;14.50;4.35;;;7.80;99.90;;;;;;5029165;28;20136;-54
2022/04/06 07:24:16;;;;;;;15.75;4.25;;;7.60;99.90;;;;;;5028676;28;20124;-52
2022/04/06 07:26:42;;;;;;;17.25;3.92;;;8.80;99.90;;;;;;5029423;28;20102;-49
2022/04/06 07:29:11;;;;;;;15.70;4.85;;;7.80;99.90;;;;;;5028046;28;20484;-50
2022/04/06 07:31:38;;;;;;;14.55;3.90;;;7.50;99.90;;;;;;5029100;28;20053;-51
2022/04/06 07:34:04;;;;;;;16.00;4.40;;;8.70;99.90;;;;;;5028931;28;20119;-49
2022/04/06 07:36:32;;;;;;;16.88;4.68;;;7.80;99.90;;;;;;5028922;28;20515;-50
2022/04/06 07:39:03;;;;;;;18.40;5.63;;;7.60;99.90;;;;;;5028778;28;20052;-50
2022/04/06 07:41:29;;;;;;;12.45;3.95;;;7.70;99.90;;;;;;5028648;28;20089;-52
2022/04/06 07:43:55;;;;;;;22.00;5.13;;;7.50;99.90;;;;;;5028949;28;20069;-52
2022/04/06 07:46:21;;;;;;;19.30;5.15;;;7.60;99.90;;;;;;5027719;28;20049;-52
2022/04/06 07:48:47;;;;;;;17.27;4.43;;;7.70;99.90;;;;;;5028738;28;20045;-50
2022/04/06 07:51:12;;;;;;;23.92;5.72;;;7.70;99.90;;;;;;5028680;28;20052;-48
2022/04/06 07:53:38;;;;;;;26.55;6.25;;;8.00;99.90;;;;;;5028794;28;20079;-52
2022/04/06 07:56:06;;;;;;;14.85;5.43;;;7.90;99.90;;;;;;5028821;28;20080;-49
2022/04/06 07:58:31;;;;;;;20.20;4.82;;;7.90;99.90;;;;;;5027975;28;20086;-50
2022/04/06 08:00:57;;;;;;;19.35;5.88;;;8.70;99.90;;;;;;5028265;28;20423;-49
2022/04/06 08:03:23;;;;;;;12.27;3.97;;;8.20;99.90;;;;;;5028601;28;20045;-50
2022/04/06 08:05:50;;;;;;;16.55;5.53;;;7.90;99.90;;;;;;5028741;28;20534;-49
2022/04/06 08:08:16;;;;;;;17.52;5.55;;;7.80;99.90;;;;;;5028371;28;20439;-50
2022/04/06 08:10:41;;;;;;;23.25;5.28;;;8.00;99.90;;;;;;5028020;28;20471;-51
2022/04/06 08:13:07;;;;;;;18.02;5.90;;;8.00;99.90;;;;;;5028274;28;20056;-50
2022/04/06 08:15:33;;;;;;;18.45;5.85;;;8.30;99.90;;;;;;5028209;28;20042;-52
2022/04/06 08:17:59;;;;;;;20.35;7.18;;;8.60;99.90;;;;;;5028233;28;20044;-48
2022/04/06 08:20:26;;;;;;;16.75;5.57;;;8.10;99.90;;;;;;5028203;28;20096;-51
2022/04/06 08:22:52;;;;;;;17.00;6.35;;;8.90;99.90;;;;;;5026646;28;20041;-53
2022/04/06 08:25:18;;;;;;;20.73;7.10;;;8.10;99.90;;;;;;5021873;28;20167;-53
2022/04/06 08:27:44;;;;;;;18.45;6.68;;;8.10;99.90;;;;;;5024678;28;20594;-53
2022/04/06 08:30:12;;;;;;;15.82;6.82;;;8.00;99.90;;;;;;5026599;28;20101;-52
2022/04/06 08:32:38;;;;;;;27.38;8.35;;;8.10;99.90;;;;;;5027534;28;20128;-39
2022/04/06 08:35:05;;;;;;;26.92;8.00;;;8.40;99.90;;;;;;5028958;28;20368;-42
2022/04/06 08:37:31;;;;;;;22.48;7.82;;;8.20;99.90;;;;;;5030448;28;20430;-41
2022/04/06 08:39:57;;;;;;;16.85;8.52;;;8.30;99.90;;;;;;5029119;28;20068;-42
2022/04/06 08:42:25;;;;;;;19.25;6.80;;;8.00;99.90;;;;;;5030156;28;20076;-43
2022/04/06 08:44:52;;;;;;;12.18;4.60;;;8.80;99.90;;;;;;5028986;28;20045;-41
2022/04/06 08:47:18;;;;;;;19.13;7.53;;;8.70;99.90;;;;;;5031116;28;20124;-44
2022/04/06 08:49:46;;;;;;;19.98;7.97;;;8.30;99.90;;;;;;5028338;28;20052;-43
2022/04/06 08:52:12;;;;;;;17.60;7.43;;;8.30;99.90;;;;;;5028846;28;20049;-46
2022/04/06 08:54:38;;;;;;;21.65;8.40;;;8.10;99.90;;;;;;5027650;28;20116;-43
2022/04/06 08:57:05;;;;;;;22.63;7.47;;;8.20;99.90;;;;;;5027733;28;20048;-43
2022/04/06 08:59:32;;;;;;;23.88;8.07;;;8.40;99.90;;;;;;5026144;28;20045;-42
2022/04/06 09:01:58;;;;;;;28.00;8.88;;;9.00;99.90;;;;;;5027566;28;20037;-42
2022/04/06 09:04:24;;;;;;;22.40;7.85;;;8.60;99.90;;;;;;5027072;28;20044;-41
2022/04/06 09:06:51;;;;;;;18.15;6.13;;;8.50;99.90;;;;;;5027975;28;20049;-42
2022/04/06 09:09:26;;;;;;;22.88;7.35;;;8.90;99.90;;;;;;5029007;28;20048;-48
2022/04/06 09:11:52;;;;;;;19.20;8.30;;;8.20;99.90;;;;;;5030172;28;20049;-47
2022/04/06 09:14:30;;;;;;;15.63;6.63;;;8.30;99.90;;;;;;5028580;28;20101;-47
2022/04/06 09:17:06;;;;;;;16.70;7.30;;;8.40;99.90;;;;;;5030070;28;20041;-50
2022/04/06 09:19:36;;;;;;;11.82;5.85;;;8.30;99.90;;;;;;5029931;28;20645;-47
2022/04/06 09:22:06;;;;;;;22.65;8.27;;;8.60;99.90;;;;;;5030144;28;20075;-51
2022/04/06 09:24:31;;;;;;;22.35;6.18;;;9.00;99.90;;;;;;5033122;28;20053;-44
2022/04/06 09:26:58;;;;;;;15.13;7.38;;;9.20;99.90;;;;;;5032401;28;20048;-44
2022/04/06 09:29:24;;;;;;;16.25;5.70;;;9.80;99.90;;;;;;5031581;28;20041;-54
2022/04/06 09:31:51;;;;;;;16.23;4.50;;;10.00;99.90;;;;;;5031735;28;20039;-47
2022/04/06 09:34:21;;;;;;;16.02;3.92;;;10.30;99.90;;;;;;5031104;28;20046;-47
2022/04/06 09:36:47;;;;;;;12.50;4.53;;;10.40;99.90;;;;;;5031716;28;20045;-48
2022/04/06 09:39:13;;;;;;;15.95;4.15;;;10.30;99.90;;;;;;5031555;28;20068;-50
2022/04/06 09:42:02;;;;;;;13.32;3.55;;;10.00;99.90;;;;;;5030868;28;20496;-46
2022/04/06 09:50:19;;;;;;;12.70;3.33;;;9.80;99.90;;;;;;5030909;28;20506;-47
2022/04/06 09:52:46;;;;;;;13.57;3.50;;;9.70;99.90;;;;;;5030934;28;20861;-49
2022/04/06 09:55:14;;;;;;;13.23;3.60;;;9.70;99.90;;;;;;5030667;28;20100;-45
2022/04/06 09:57:44;;;;;;;7.22;3.50;;;9.40;99.90;;;;;;5030959;28;20825;-46
2022/04/06 10:00:18;;;;;;;15.80;3.97;;;9.30;99.90;;;;;;5031038;28;20037;-47
2022/04/06 10:03:03;;;;;;;10.80;3.88;;;9.40;99.90;;;;;;5031439;28;20052;-48
2022/04/06 10:05:31;;;;;;;8.48;3.25;;;9.40;99.90;;;;;;5031322;28;20037;-48
2022/04/06 10:08:06;;;;;;;15.13;4.40;;;9.50;99.90;;;;;;5031257;28;20077;-51
2022/04/06 10:10:33;;;;;;;12.02;4.95;;;10.50;99.90;;;;;;5030872;28;20615;-52
2022/04/06 10:12:59;;;;;;;9.35;4.25;;;9.70;99.90;;;;;;5028975;28;20373;-52
2022/04/06 10:15:26;;;;;;;14.95;4.22;;;9.90;99.90;;;;;;5028881;28;20060;-48
2022/04/06 10:17:52;;;;;;;14.68;4.60;;;10.20;99.90;;;;;;5030689;28;20045;-50
2022/04/06 10:20:48;;;;;;;13.10;4.30;;;10.00;99.90;;;;;;5029813;28;20050;-52
2022/04/06 10:23:25;;;;;;;16.95;5.05;;;10.00;99.90;;;;;;5031519;28;20041;-48
2022/04/06 10:25:51;;;;;;;17.80;6.07;;;10.00;99.90;;;;;;5030233;28;20033;-49
2022/04/06 10:28:20;;;;;;;11.93;4.95;;;10.00;99.90;;;;;;5030132;28;20376;-48
2022/04/06 10:31:22;;;;;;;16.90;6.20;;;9.80;99.90;;;;;;5030772;28;20038;-48
2022/04/06 10:34:17;;;;;;;12.68;5.07;;;9.80;99.90;;;;;;5029642;28;20801;-53
2022/04/06 10:36:44;;;;;;;17.83;5.75;;;9.70;99.90;;;;;;5030161;28;20088;-52
2022/04/06 10:39:11;;;;;;;20.80;5.43;;;9.70;99.90;;;;;;5030001;28;20083;-51
2022/04/06 10:41:41;;;;;;;14.50;5.10;;;9.70;99.90;;;;;;5029564;28;20392;-50
2022/04/06 10:44:08;;;;;;;21.15;5.70;;;10.50;99.90;;;;;;5030569;28;20053;-47
2022/04/06 10:46:39;;;;;;;11.38;5.55;;;9.70;99.90;;;;;;5030010;28;20053;-47
2022/04/06 10:49:09;;;;;;;15.48;5.82;;;9.70;99.90;;;;;;5030290;28;20045;-55
2022/04/06 10:51:45;;;;;;;8.60;5.10;;;9.60;99.90;;;;;;5029246;28;20423;-45
2022/04/06 10:54:14;;;;;;;15.77;5.20;;;9.70;99.90;;;;;;5029258;28;20045;-48
2022/04/06 10:56:48;;;;;;;16.65;6.47;;;9.70;99.90;;;;;;5029873;28;20088;-47
2022/04/06 10:59:18;;;;;;;20.58;6.03;;;9.70;99.90;;;;;;5029554;28;20834;-49
2022/04/06 11:01:48;;;;;;;18.48;6.32;;;10.70;99.90;;;;;;5029600;28;20056;-46
2022/04/06 11:04:24;;;;;;;16.20;6.15;;;9.60;99.90;;;;;;5027472;28;20516;-49
2022/04/06 11:06:59;;;;;;;13.27;6.63;;;9.50;99.90;;;;;;5029647;28;20077;-47
2022/04/06 11:12:32;;;;;;;17.38;6.22;;;9.30;99.90;;;;;;5029513;28;20408;-46
2022/04/06 11:15:01;;;;;;;17.98;6.93;;;9.40;99.90;;;;;;5029914;28;20087;-45
2022/04/06 11:17:37;;;;;;;17.25;6.32;;;9.30;99.90;;;;;;5029422;28;20037;-44
2022/04/06 11:20:14;;;;;;;15.65;5.93;;;9.40;99.90;;;;;;5029431;28;20054;-45
2022/04/06 11:22:45;;;;;;;16.33;7.13;;;9.50;99.90;;;;;;5029299;28;20060;-43
2022/04/06 11:25:15;;;;;;;17.53;6.93;;;9.50;99.90;;;;;;5029157;28;20049;-43
2022/04/06 11:27:43;;;;;;;14.02;6.57;;;9.40;99.90;;;;;;5029425;28;20048;-44
2022/04/06 11:30:13;;;;;;;19.85;8.93;;;9.40;99.90;;;;;;5029778;28;20049;-44
2022/04/06 11:33:00;;;;;;;13.73;7.57;;;9.70;99.90;;;;;;5027986;28;20527;-44
2022/04/06 11:35:31;;;;;;;24.35;7.95;;;10.00;99.90;;;;;;5029435;28;20045;-46
2022/04/06 11:37:57;;;;;;;12.60;7.18;;;9.90;99.90;;;;;;5030311;28;20054;-45
2022/04/06 11:40:25;;;;;;;12.15;8.63;;;10.60;99.90;;;;;;5028447;28;20049;-43
2022/04/06 11:42:52;;;;;;;14.35;8.30;;;10.00;99.90;;;;;;5029432;28;20053;-45
2022/04/06 11:45:44;;;;;;;17.45;7.18;;;9.80;99.90;;;;;;5027775;28;20733;-44
2022/04/06 11:48:12;;;;;;;11.60;8.25;;;10.10;99.90;;;;;;5028306;28;20053;-44
2022/04/06 11:50:39;;;;;;;17.40;8.50;;;10.30;99.90;;;;;;5028694;28;20060;-45
2022/04/06 11:53:08;;;;;;;17.65;7.93;;;10.50;99.90;;;;;;5028736;28;20045;-44
2022/04/06 11:55:53;;;;;;;20.17;8.27;;;10.40;99.90;;;;;;5027854;28;20053;-45
2022/04/06 11:58:38;;;;;;;13.90;7.47;;;10.30;99.90;;;;;;5028908;28;20057;-47
2022/04/06 12:01:09;;;;;;;11.68;7.00;;;10.30;99.90;;;;;;5028071;28;20045;-45
2022/04/06 12:03:37;;;;;;;11.98;7.75;;;10.30;99.90;;;;;;5027620;28;20045;-48
2022/04/06 12:06:05;;;;;;;11.23;7.68;;;10.20;99.90;;;;;;5027346;28;20056;-49
2022/04/06 12:08:34;;;;;;;21.58;8.32;;;10.30;99.90;;;;;;5028452;28;20037;-47
2022/04/06 12:11:01;;;;;;;12.52;7.90;;;10.70;99.90;;;;;;5028680;28;20132;-45
2022/04/06 12:13:32;;;;;;;15.45;6.05;;;10.20;99.90;;;;;;5028951;28;20045;-44
2022/04/06 12:15:59;;;;;;;11.70;7.82;;;10.20;99.90;;;;;;5029914;28;20041;-48
2022/04/06 12:18:25;;;;;;;16.17;7.60;;;10.00;99.90;;;;;;5028213;28;20056;-49
2022/04/06 12:20:53;;;;;;;18.55;8.15;;;10.70;99.90;;;;;;5028401;28;20117;-46
2022/04/06 12:23:20;;;;;;;19.10;8.40;;;10.10;99.90;;;;;;5028217;28;20049;-46
2022/04/06 12:25:47;;;;;;;17.10;8.80;;;10.00;99.90;;;;;;5027650;28;20033;-44
2022/04/06 12:28:23;;;;;;;19.52;8.30;;;10.20;99.90;;;;;;5028202;28;20091;-45
2022/04/06 12:31:00;;;;;;;19.17;8.27;;;10.30;99.90;;;;;;5028132;28;20104;-44
2022/04/06 12:33:41;;;;;;;13.80;7.65;;;10.40;99.90;;;;;;5027688;28;20048;-46
2022/04/06 12:36:15;;;;;;;12.05;6.93;;;10.10;99.90;;;;;;5028018;28;20128;-46
2022/04/06 12:39:02;;;;;;;14.68;7.13;;;10.30;99.90;;;;;;5027709;28;20052;-47
2022/04/06 12:41:30;;;;;;;23.85;7.95;;;10.30;99.90;;;;;;5022870;28;20053;-49
2022/04/06 12:43:58;;;;;;;13.45;7.93;;;10.50;99.90;;;;;;5027871;28;20041;-48
2022/04/06 12:46:43;;;;;;;17.45;8.02;;;10.40;99.90;;;;;;5027296;28;20049;-44
2022/04/06 12:49:41;;;;;;;13.60;6.57;;;11.00;99.90;;;;;;5027915;28;20041;-47
2022/04/06 12:52:24;;;;;;;17.35;8.40;;;11.30;99.90;;;;;;5022294;28;20807;-42
2022/04/06 12:55:02;;;;;;;15.05;6.88;;;11.50;99.90;;;;;;5027342;28;20099;-44
2022/04/06 12:57:28;;;;;;;12.93;7.20;;;11.70;99.90;;;;;;5029860;28;20041;-46
2022/04/06 12:59:56;;;;;;;13.00;6.15;;;11.90;99.90;;;;;;5031888;28;20048;-43